Time;durP1;ratioP1;P1;durP2;ratioP2;P2;SDS_P1;SDS_P2;PMS_P1;PMS_P2;Temp;Humidity;BMP_temperature;BMP_pressure;BME280_temperature;BME280_humidity;BME280_pressure;Samples;Min_cycle;Max_cycle;Signal;HPM_P1;HPM_P2
2023/10/18 00:01:23;;;;;;;7.97;2.08;;;;;;;16.74;62.92;101058.91;5110837;28;20457;-83
2023/10/18 00:03:49;;;;;;;11.65;1.80;;;;;;;16.68;63.30;101067.69;5110510;28;20032;-81
2023/10/18 00:06:21;;;;;;;10.32;2.22;;;;;;;16.13;64.46;101020.69;5091215;28;20048;-80
2023/10/18 00:08:46;;;;;;;;;;;;;;;16.06;66.13;101069.25;5109807;28;20024;-79
2023/10/18 00:11:13;;;;;;;25.02;4.50;;;;;;;15.78;67.97;101056.66;5110830;28;19964;-79
2023/10/18 00:13:39;;;;;;;12.88;3.53;;;;;;;15.33;69.63;101037.47;5110260;28;20073;-78
2023/10/18 00:16:05;;;;;;;13.68;3.15;;;;;;;15.01;73.39;101037.81;5110516;28;20055;-80
2023/10/18 00:18:32;;;;;;;4.85;1.95;;;;;;;15.13;76.34;101042.09;5110648;28;20034;-77
2023/10/18 00:21:09;;;;;;;6.72;2.55;;;;;;;14.93;77.86;101053.03;5110122;28;20020;-78
2023/10/18 00:23:34;;;;;;;6.07;1.98;;;;;;;14.69;78.94;101029.09;5110425;28;20063;-78
2023/10/18 00:26:05;;;;;;;4.60;2.35;;;;;;;14.69;80.01;101053.47;5110395;28;20055;-79
2023/10/18 00:28:31;;;;;;;9.48;2.72;;;;;;;14.53;81.66;101056.72;5110341;28;20396;-78
2023/10/18 00:30:57;;;;;;;6.18;2.92;;;;;;;14.41;83.10;101040.72;5110193;28;20055;-78
2023/10/18 00:33:23;;;;;;;8.65;2.88;;;;;;;14.50;83.92;101048.00;5110172;28;20583;-77
2023/10/18 00:35:49;;;;;;;12.10;3.83;;;;;;;14.53;84.76;101054.00;5110035;28;20023;-77
2023/10/18 00:38:17;;;;;;;8.95;3.33;;;;;;;14.45;85.00;101055.72;5107422;28;20043;-79
2023/10/18 00:40:50;;;;;;;10.55;2.97;;;;;;;14.44;86.32;101062.09;5107488;28;20035;-78
2023/10/18 00:43:28;;;;;;;21.88;3.08;;;;;;;14.44;87.14;101070.22;5107451;28;20085;-79
2023/10/18 00:45:55;;;;;;;10.65;4.20;;;;;;;14.42;87.47;101064.09;5107440;28;20039;-78
2023/10/18 00:48:27;;;;;;;7.20;2.75;;;;;;;14.40;87.95;101064.22;5109175;28;20130;-78
2023/10/18 00:50:54;;;;;;;9.05;3.17;;;;;;;14.42;88.20;101069.53;5111683;28;20028;-79
2023/10/18 00:53:25;;;;;;;14.50;4.57;;;;;;;14.28;88.78;101048.25;5111648;28;20043;-78
2023/10/18 00:55:59;;;;;;;6.72;3.20;;;;;;;14.19;89.50;101049.91;5111436;28;20031;-78
2023/10/18 00:58:29;;;;;;;7.32;3.20;;;;;;;14.22;90.23;101049.63;5111649;28;20477;-78
2023/10/18 01:00:56;;;;;;;9.70;2.70;;;;;;;14.30;90.53;101041.69;5111352;28;20107;-78
2023/10/18 01:03:38;;;;;;;10.90;3.45;;;;;;;14.36;91.24;101057.41;5111394;28;20062;-78
2023/10/18 01:06:24;;;;;;;9.77;2.83;;;;;;;14.36;91.33;101061.97;5094183;28;20027;-78
2023/10/18 01:08:50;;;;;;;14.00;3.22;;;;;;;14.38;91.69;101065.38;5112050;28;20400;-78
2023/10/18 01:11:23;;;;;;;7.57;2.83;;;;;;;14.32;92.14;101057.78;5113607;28;20517;-78
2023/10/18 01:13:48;;;;;;;7.07;3.05;;;;;;;14.39;92.37;101067.94;5113759;28;20027;-78
2023/10/18 01:16:20;;;;;;;10.30;3.28;;;;;;;14.42;92.59;101067.69;5113593;28;20054;-78
2023/10/18 01:18:47;;;;;;;7.57;3.00;;;;;;;14.42;92.52;101066.81;5113568;28;20092;-78
2023/10/18 01:21:16;;;;;;;4.88;2.15;;;;;;;14.35;91.10;101060.22;5113337;28;20028;-78
2023/10/18 01:23:53;;;;;;;6.45;2.88;;;;;;;14.40;91.11;101066.94;5111806;28;20035;-77
2023/10/18 01:26:26;;;;;;;4.85;3.47;;;;;;;14.37;91.30;101069.91;5113200;28;20023;-77
2023/10/18 01:28:54;;;;;;;6.72;3.00;;;;;;;14.35;91.39;101057.53;5113596;28;20045;-78
2023/10/18 01:31:20;;;;;;;15.68;2.97;;;;;;;14.33;91.62;101065.81;5113288;28;20503;-79
2023/10/18 01:33:47;;;;;;;6.15;2.67;;;;;;;14.27;91.90;101062.75;5113307;28;20341;-78
2023/10/18 01:36:17;;;;;;;6.50;2.70;;;;;;;14.32;92.40;101060.47;5113139;28;20355;-79
2023/10/18 01:38:52;;;;;;;7.20;2.83;;;;;;;14.20;92.95;101046.22;5113599;28;20027;-78
2023/10/18 01:41:29;;;;;;;9.10;3.70;;;;;;;14.30;93.48;101057.94;5112934;28;20495;-78
2023/10/18 01:44:07;;;;;;;5.97;2.72;;;;;;;14.36;92.87;101067.38;5113269;28;20467;-77
2023/10/18 01:46:34;;;;;;;7.25;2.55;;;;;;;14.36;92.66;101073.63;5112916;28;20027;-77
2023/10/18 01:49:00;;;;;;;6.55;2.65;;;;;;;14.30;92.41;101073.31;5113280;28;20026;-78
2023/10/18 01:51:27;;;;;;;8.90;3.10;;;;;;;14.25;92.05;101078.28;5112946;28;20081;-78
2023/10/18 01:53:55;;;;;;;12.85;3.45;;;;;;;14.27;92.31;101079.00;5113463;28;20031;-78
2023/10/18 01:56:21;;;;;;;10.02;2.97;;;;;;;14.33;92.60;101073.06;5112686;28;20023;-78
2023/10/18 01:58:48;;;;;;;12.27;3.13;;;;;;;14.36;92.40;101078.19;5112793;27;20066;-77
2023/10/18 02:01:16;;;;;;;5.93;3.05;;;;;;;14.36;92.51;101075.50;5112035;28;20024;-78
2023/10/18 02:03:44;;;;;;;9.63;2.70;;;;;;;14.31;92.58;101069.63;5112616;28;20110;-79
2023/10/18 02:06:14;;;;;;;11.45;3.38;;;;;;;14.36;92.57;101083.59;5112746;28;20081;-77
2023/10/18 02:08:40;;;;;;;10.32;3.30;;;;;;;14.36;92.75;101070.94;5093200;28;20526;-78
2023/10/18 02:11:07;;;;;;;8.38;3.80;;;;;;;14.40;92.68;101083.19;5112497;27;20426;-77
2023/10/18 02:13:33;;;;;;;10.48;3.30;;;;;;;14.41;92.65;101070.50;5112130;28;20418;-77
2023/10/18 02:15:58;;;;;;;6.00;3.05;;;;;;;14.44;92.48;101075.63;5112210;28;20047;-77
2023/10/18 02:18:26;;;;;;;10.50;2.50;;;;;;;14.42;91.57;101066.81;5110188;28;20035;-78
2023/10/18 02:20:52;;;;;;;5.88;2.72;;;;;;;14.40;91.11;101074.22;5112423;28;20026;-78
2023/10/18 02:23:21;;;;;;;7.50;2.90;;;;;;;14.39;91.22;101072.50;5112245;28;20102;-79
2023/10/18 02:25:48;;;;;;;6.07;2.38;;;;;;;14.41;91.49;101075.91;5112059;28;20051;-77
2023/10/18 02:28:25;;;;;;;5.15;3.20;;;;;;;14.34;91.45;101063.97;5112385;28;20034;-77
2023/10/18 02:30:56;;;;;;;5.40;2.78;;;;;;;14.37;91.44;101069.91;5112176;28;20118;-78
2023/10/18 02:33:38;;;;;;;8.90;3.40;;;;;;;14.36;90.50;101067.38;5112045;28;20027;-77
2023/10/18 02:36:20;;;;;;;;;;;;;;;14.32;90.31;101071.31;5111053;28;20104;-78
2023/10/18 02:38:46;;;;;;;4.20;2.55;;;;;;;14.14;90.00;101058.44;5112023;28;20264;-77
2023/10/18 02:41:26;;;;;;;8.48;2.67;;;;;;;14.27;90.25;101070.88;5112217;28;20027;-78
2023/10/18 02:43:55;;;;;;;9.63;2.67;;;;;;;14.26;90.68;101064.59;5110538;28;20411;-77
2023/10/18 02:46:25;;;;;;;13.23;2.97;;;;;;;14.24;90.83;101065.72;5112060;28;20536;-77
2023/10/18 02:48:52;;;;;;;5.80;2.70;;;;;;;14.21;91.35;101057.91;5111664;28;20494;-77
2023/10/18 02:51:24;;;;;;;5.60;2.92;;;;;;;14.18;90.94;101064.44;5112124;28;20030;-77
2023/10/18 02:53:51;;;;;;;;;;;;;;;14.04;90.48;101060.25;5112060;28;20027;-77
2023/10/18 02:56:20;;;;;;;7.57;2.50;;;;;;;14.06;90.35;101061.00;5111728;28;19911;-77
2023/10/18 02:58:49;;;;;;;5.72;2.38;;;;;;;14.03;89.95;101050.44;5111598;28;20124;-77
2023/10/18 03:01:18;;;;;;;7.00;2.92;;;;;;;14.04;90.30;101052.13;5111409;28;20039;-78
2023/10/18 03:03:49;;;;;;;4.07;2.83;;;;;;;14.04;90.75;101037.75;5111583;28;20023;-78
2023/10/18 03:06:15;;;;;;;5.57;2.75;;;;;;;14.13;91.36;101054.00;5111265;28;20027;-78
2023/10/18 03:08:56;;;;;;;7.25;3.13;;;;;;;14.14;91.88;101047.63;5111221;28;20036;-78
2023/10/18 03:11:23;;;;;;;8.25;3.35;;;;;;;14.23;92.19;101042.38;5111188;28;20034;-77
2023/10/18 03:13:51;;;;;;;11.27;3.10;;;;;;;14.26;92.67;101037.53;5108493;28;20158;-76
2023/10/18 03:16:27;;;;;;;8.65;2.95;;;;;;;14.32;93.10;101031.56;5110828;28;20039;-77
2023/10/18 03:18:53;;;;;;;4.40;2.72;;;;;;;14.36;93.10;101029.47;5110673;28;20470;-77
2023/10/18 03:21:22;;;;;;;16.75;2.85;;;;;;;14.35;91.36;101030.47;5110911;28;20076;-77
2023/10/18 03:23:51;;;;;;;9.55;2.75;;;;;;;14.28;89.03;101045.53;5110778;28;20031;-78
2023/10/18 03:26:33;;;;;;;6.82;2.83;;;;;;;14.27;88.63;101047.38;5109306;28;20539;-78
2023/10/18 03:29:01;;;;;;;5.53;2.47;;;;;;;14.07;88.05;101030.22;5110750;28;20034;-77
2023/10/18 03:31:27;;;;;;;6.15;2.70;;;;;;;14.12;88.73;101037.94;5110306;28;20032;-77
2023/10/18 03:33:59;;;;;;;7.78;2.97;;;;;;;14.10;88.49;101029.94;5110255;28;20019;-77
2023/10/18 03:36:26;;;;;;;5.18;2.20;;;;;;;14.01;87.56;101036.19;5110145;28;20028;-77
2023/10/18 03:38:55;;;;;;;5.05;2.28;;;;;;;13.98;87.56;101031.03;5107387;28;20028;-79
2023/10/18 03:41:25;;;;;;;6.93;3.65;;;;;;;13.99;88.08;101043.59;5110214;28;20449;-77
2023/10/18 03:44:03;;;;;;;25.00;8.43;;;;;;;13.95;89.10;101035.88;5110153;28;20027;-79
2023/10/18 03:46:29;;;;;;;50.38;14.52;;;;;;;13.98;89.95;101039.16;5110128;28;20028;-76
2023/10/18 03:48:56;;;;;;;10.35;4.07;;;;;;;13.99;89.99;101040.88;5109833;28;20027;-77
2023/10/18 03:51:24;;;;;;;7.43;3.97;;;;;;;14.04;90.19;101044.03;5109608;28;20019;-78
2023/10/18 03:53:55;;;;;;;6.80;3.30;;;;;;;14.06;90.82;101044.75;5110243;28;20046;-76
2023/10/18 03:56:23;;;;;;;8.50;3.00;;;;;;;14.06;91.14;101033.09;5090418;28;20038;-77
2023/10/18 03:58:53;;;;;;;11.93;3.90;;;;;;;14.08;91.00;101031.94;5110247;28;20051;-77
2023/10/18 04:01:21;;;;;;;8.05;2.47;;;;;;;14.11;90.96;101031.66;5110263;28;20024;-78
2023/10/18 04:03:49;;;;;;;9.77;3.13;;;;;;;14.16;90.90;101029.41;5110304;28;20027;-78
2023/10/18 04:06:23;;;;;;;15.75;3.85;;;;;;;14.20;91.10;101011.03;5110693;28;20102;-79
2023/10/18 04:08:48;;;;;;;11.15;3.88;;;;;;;14.19;91.12;101002.06;5110084;28;20032;-79
2023/10/18 04:11:14;;;;;;;7.68;3.40;;;;;;;14.26;90.99;101001.50;5110135;28;20026;-80
2023/10/18 04:13:39;;;;;;;10.25;4.45;;;;;;;14.25;91.31;100983.59;5109755;28;20092;-80
2023/10/18 04:16:11;;;;;;;9.35;3.90;;;;;;;14.28;91.14;100983.31;5109912;28;20079;-80
2023/10/18 04:18:42;;;;;;;10.50;3.87;;;;;;;14.37;89.96;100999.56;5110053;28;20030;-80
2023/10/18 04:21:25;;;;;;;26.95;4.43;;;;;;;14.40;90.15;100999.28;5110092;28;20077;-80
2023/10/18 04:23:56;;;;;;;8.25;4.40;;;;;;;14.41;89.16;101013.66;5108476;28;20019;-80
2023/10/18 04:26:25;;;;;;;19.05;4.68;;;;;;;14.37;88.76;101004.16;5107607;28;20479;-80
2023/10/18 04:28:57;;;;;;;6.05;3.08;;;;;;;14.21;88.69;100982.16;5110263;28;20038;-80
2023/10/18 04:31:22;;;;;;;;;;;;;;;14.36;88.59;101007.84;5111121;28;20031;-80
2023/10/18 04:33:53;;;;;;;8.65;3.30;;;;;;;14.15;86.74;100981.72;5110392;28;20002;-82
2023/10/18 04:36:21;;;;;;;8.57;3.65;;;;;;;14.19;86.40;100984.97;5110621;28;20107;-82
2023/10/18 04:38:48;;;;;;;11.48;6.38;;;;;;;14.18;86.38;100978.72;5110969;28;20028;-85
2023/10/18 04:43:50;;;;;;;7.10;3.53;;;;;;;14.30;85.64;101013.78;5110422;28;20126;-81
2023/10/18 04:46:16;;;;;;;16.00;4.40;;;;;;;14.27;86.42;101009.50;5110174;28;20483;-82
2023/10/18 04:51:33;;;;;;;8.88;4.88;;;;;;;14.17;86.92;101000.50;5110743;28;20032;-82
2023/10/18 04:54:01;;;;;;;14.82;5.10;;;;;;;14.28;87.46;101015.78;5111199;28;20055;-84
2023/10/18 04:56:34;;;;;;;9.48;3.10;;;;;;;14.12;87.06;100995.53;5110827;28;20028;-82
2023/10/18 04:59:06;;;;;;;8.55;3.00;;;;;;;14.21;86.52;101009.19;5110497;28;20028;-83
2023/10/18 05:01:36;;;;;;;7.85;2.97;;;;;;;14.08;87.08;101004.91;5111830;28;20035;-87
2023/10/18 05:04:20;;;;;;;8.95;3.88;;;;;;;14.12;87.70;101014.47;5110058;28;20078;-76
2023/10/18 05:06:55;;;;;;;14.30;5.55;;;;;;;14.13;88.08;101028.81;5109874;28;20023;-77
2023/10/18 05:09:41;;;;;;;21.70;5.00;;;;;;;14.12;88.64;101043.34;5110157;28;20118;-77
2023/10/18 05:12:27;;;;;;;9.02;3.70;;;;;;;14.10;89.64;101046.19;5109632;28;20118;-78
2023/10/18 05:15:08;;;;;;;12.05;3.67;;;;;;;14.13;89.73;101037.78;5109745;28;20131;-79
2023/10/18 05:17:39;;;;;;;12.45;3.63;;;;;;;14.17;89.75;101047.34;5109300;28;20084;-76
2023/10/18 05:25:45;;;;;;;10.98;5.00;;;;;;;14.09;88.35;101036.38;5086534;28;20044;-77
2023/10/18 05:43:49;;;;;;;49.00;16.38;;;;;;;14.38;87.44;101059.97;5089996;28;20040;-77
2023/10/18 05:46:14;;;;;;;18.10;6.85;;;;;;;14.24;87.72;101027.84;5090398;28;20039;-77
2023/10/18 05:48:42;;;;;;;17.17;7.28;;;;;;;14.43;87.44;101061.25;5089901;28;20115;-78
2023/10/18 05:53:49;;;;;;;8.77;5.05;;;;;;;14.59;86.57;101053.44;5090118;28;20028;-77
2023/10/18 05:56:15;;;;;;;9.88;6.63;;;;;;;14.63;85.67;101054.03;5055902;28;20109;-78
2023/10/18 05:58:40;;;;;;;13.55;3.63;;;;;;;14.66;84.79;101048.34;5089898;28;20115;-78
2023/10/18 06:01:06;;;;;;;7.07;4.75;;;;;;;14.63;84.16;101038.66;5092145;28;20034;-79
2023/10/18 06:03:41;;;;;;;10.18;4.93;;;;;;;14.77;83.65;101053.59;5113266;28;20536;-80
2023/10/18 06:06:09;;;;;;;13.27;3.75;;;;;;;14.73;83.45;101063.03;5112819;28;20031;-80
2023/10/18 06:08:36;;;;;;;8.20;2.75;;;;;;;14.64;82.68;101048.50;5113021;28;20024;-81
2023/10/18 06:11:08;;;;;;;17.40;4.30;;;;;;;14.61;82.12;101028.97;5112557;28;20023;-80
2023/10/18 06:13:37;;;;;;;18.40;4.47;;;;;;;14.80;81.63;101050.63;5112759;28;20020;-81
2023/10/18 06:16:29;;;;;;;12.10;5.43;;;;;;;14.77;80.58;101053.59;5112691;28;20517;-82
2023/10/18 06:18:59;;;;;;;7.47;2.88;;;;;;;14.70;80.60;101033.53;5112763;28;20027;-83
2023/10/18 06:21:25;;;;;;;6.93;4.15;;;;;;;14.81;81.18;101046.06;5112778;28;20507;-83
2023/10/18 06:23:54;;;;;;;14.05;4.45;;;;;;;14.79;80.53;101038.09;5112965;28;20031;-83
2023/10/18 06:26:33;;;;;;;13.13;5.50;;;;;;;14.90;81.05;101051.50;5112817;28;20032;-84
2023/10/18 06:29:08;;;;;;;20.00;5.78;;;;;;;14.81;81.70;101027.97;5112130;28;20074;-84
2023/10/18 06:31:39;;;;;;;10.88;4.88;;;;;;;15.03;81.97;101046.66;5112419;28;20039;-85
2023/10/18 06:34:10;;;;;;;9.30;4.07;;;;;;;15.08;81.77;101048.91;5111937;28;20020;-84
2023/10/18 06:36:38;;;;;;;11.70;4.15;;;;;;;15.02;80.98;101038.66;5112711;28;20486;-84
2023/10/18 06:39:05;;;;;;;17.70;7.78;;;;;;;14.83;80.36;101006.19;5111973;28;20028;-84
2023/10/18 06:41:31;;;;;;;24.75;9.73;;;;;;;14.94;79.34;101035.81;5112031;28;20031;-84
2023/10/18 06:43:59;;;;;;;13.50;7.18;;;;;;;15.10;80.03;101061.34;5112042;28;20023;-84
2023/10/18 06:46:38;;;;;;;26.42;8.98;;;;;;;15.09;79.74;101062.31;5111343;28;20119;-84
2023/10/18 06:49:10;;;;;;;20.67;10.75;;;;;;;15.08;79.52;101060.59;5111890;28;20027;-84
2023/10/18 06:51:40;;;;;;;18.42;7.57;;;;;;;15.06;79.61;101053.63;5111612;28;20064;-84
2023/10/18 06:54:13;;;;;;;12.50;6.72;;;;;;;15.15;79.13;101067.19;5111734;28;20039;-84
2023/10/18 06:56:45;;;;;;;19.42;9.60;;;;;;;15.10;79.35;101052.34;5111474;28;20027;-84
2023/10/18 06:59:11;;;;;;;21.63;7.85;;;;;;;14.95;79.58;101030.22;5111434;28;20032;-83
2023/10/18 07:01:58;;;;;;;34.83;13.18;;;;;;;15.16;80.53;101071.59;5111353;28;20384;-83
2023/10/18 07:04:37;;;;;;;24.88;9.63;;;;;;;15.07;80.30;101048.09;5111344;28;20020;-82
2023/10/18 07:07:13;;;;;;;21.85;9.18;;;;;;;15.19;79.83;101065.03;5111085;28;20066;-82
2023/10/18 07:09:42;;;;;;;27.00;14.18;;;;;;;15.26;79.12;101064.31;5111400;28;20035;-82
2023/10/18 07:12:11;;;;;;;23.52;10.23;;;;;;;15.27;78.76;101060.59;5111514;28;20114;-84
2023/10/18 07:14:41;;;;;;;12.50;6.10;;;;;;;14.85;78.62;100987.91;5111627;28;20115;-82
2023/10/18 07:17:10;;;;;;;7.60;3.58;;;;;;;15.11;77.71;101025.09;5111069;28;20059;-82
2023/10/18 07:19:48;;;;;;;8.65;3.67;;;;;;;15.32;77.41;101059.31;5110986;28;20446;-83
2023/10/18 07:22:18;;;;;;;18.33;3.58;;;;;;;15.31;75.95;101061.19;5111414;28;20022;-83
2023/10/18 07:24:47;;;;;;;8.98;3.30;;;;;;;15.18;76.17;101038.94;5110957;28;20036;-82
2023/10/18 07:27:15;;;;;;;10.32;4.20;;;;;;;15.22;75.88;101046.63;5110843;28;20024;-82
2023/10/18 07:29:46;;;;;;;6.05;3.13;;;;;;;15.41;75.02;101063.88;5111032;28;20034;-83
2023/10/18 07:32:12;;;;;;;4.28;2.42;;;;;;;15.43;74.98;101059.16;5110705;28;20408;-82
2023/10/18 07:34:38;;;;;;;3.03;2.05;;;;;;;15.21;74.84;101020.53;5110840;28;20463;-83
2023/10/18 07:37:24;;;;;;;10.52;3.85;;;;;;;15.47;74.90;101055.16;5110947;28;20019;-82
2023/10/18 07:40:07;;;;;;;11.05;2.80;;;;;;;15.42;75.89;101030.31;5110697;28;20151;-81
2023/10/18 07:42:40;;;;;;;10.13;3.20;;;;;;;15.49;75.83;101023.34;5110730;28;20024;-82
2023/10/18 07:45:08;;;;;;;4.53;2.63;;;;;;;15.66;74.30;101028.00;5110919;28;20028;-82
2023/10/18 07:47:37;;;;;;;10.50;2.90;;;;;;;15.84;73.35;101037.06;5091529;28;20033;-82
2023/10/18 07:52:54;;;;;;;7.18;2.80;;;;;;;16.37;74.05;101058.13;5110681;28;20587;-81
2023/10/18 07:55:23;;;;;;;6.18;3.17;;;;;;;16.11;73.54;100999.13;5108267;28;20050;-82
2023/10/18 07:57:49;;;;;;;5.78;2.78;;;;;;;16.51;72.51;101041.31;5109881;28;20023;-81
2023/10/18 08:00:21;;;;;;;8.90;2.40;;;;;;;16.74;72.12;101053.47;5110553;28;20051;-82
2023/10/18 08:02:50;;;;;;;7.65;2.95;;;;;;;16.63;70.63;101034.69;5110552;28;20031;-80
2023/10/18 08:05:22;;;;;;;4.43;2.30;;;;;;;16.52;71.50;101024.00;5091540;28;20039;-83
2023/10/18 08:07:55;;;;;;;5.27;2.73;;;;;;;16.55;72.12;101038.16;5110823;28;20051;-81
2023/10/18 08:10:21;;;;;;;6.10;2.13;;;;;;;16.58;72.07;101037.00;5110112;28;20506;-81
2023/10/18 08:13:03;;;;;;;9.70;3.28;;;;;;;16.57;71.33;101035.31;5110331;28;20110;-80
2023/10/18 08:15:35;;;;;;;5.35;2.03;;;;;;;16.72;70.92;101050.06;5109832;28;20044;-80
2023/10/18 08:18:17;;;;;;;14.63;2.95;;;;;;;16.78;71.21;101054.88;5110434;28;20046;-80
2023/10/18 08:26:07;;;;;;;6.40;2.60;;;;;;;16.67;67.74;101030.66;5110100;28;20534;-81
2023/10/18 08:28:40;;;;;;;14.57;4.22;;;;;;;16.79;65.64;101040.28;5109498;28;20038;-80
2023/10/18 08:31:15;;;;;;;17.15;2.30;;;;;;;17.01;66.72;101057.97;5109809;28;20070;-82
2023/10/18 08:33:41;;;;;;;21.77;4.05;;;;;;;17.10;67.28;101044.31;5109892;28;20054;-80
2023/10/18 08:36:09;;;;;;;39.63;4.78;;;;;;;17.38;67.84;101062.22;5110203;28;20023;-80
2023/10/18 08:38:35;;;;;;;33.85;4.65;;;;;;;17.42;66.70;101038.28;5109875;28;20032;-82
2023/10/18 08:41:15;;;;;;;42.42;4.68;;;;;;;17.63;63.72;101057.00;5109810;28;20030;-81
2023/10/18 08:43:58;;;;;;;24.65;3.47;;;;;;;17.61;59.56;101059.03;5109902;28;20040;-81
2023/10/18 08:46:26;;;;;;;97.90;10.23;;;;;;;17.53;59.04;101034.44;5109528;27;20031;-79
2023/10/18 08:48:55;;;;;;;17.63;3.33;;;;;;;17.56;57.33;101042.31;5109562;28;20031;-81
2023/10/18 08:51:26;;;;;;;49.30;6.50;;;;;;;17.55;57.47;101038.75;5109756;28;20039;-81
2023/10/18 08:53:54;;;;;;;43.50;4.93;;;;;;;17.70;57.31;101058.06;5109741;28;20031;-80
2023/10/18 08:56:29;;;;;;;16.17;2.85;;;;;;;17.58;58.13;101048.47;5109376;28;20529;-80
2023/10/18 08:58:56;;;;;;;36.47;6.13;;;;;;;17.40;58.67;101041.16;5109695;28;20072;-79
2023/10/18 09:01:24;;;;;;;23.02;3.88;;;;;;;17.34;59.42;101030.91;5109701;28;20118;-80
2023/10/18 09:03:50;;;;;;;106.43;9.55;;;;;;;17.56;59.29;101056.78;5109677;28;20464;-80
2023/10/18 09:06:22;;;;;;;11.15;2.92;;;;;;;17.50;58.59;101056.53;5109772;28;20019;-82
2023/10/18 09:09:04;;;;;;;;;;;;;;;17.50;58.33;101057.38;5110642;28;20112;-79
2023/10/18 09:11:31;;;;;;;40.22;3.58;;;;;;;17.65;59.80;101071.28;5113871;28;19911;-81
2023/10/18 09:14:07;;;;;;;50.55;4.68;;;;;;;17.68;58.20;101060.06;5113452;28;20075;-83
2023/10/18 09:16:40;;;;;;;39.28;4.57;;;;;;;17.47;58.61;101030.50;5113799;28;20073;-79
2023/10/18 09:19:07;;;;;;;48.85;5.35;;;;;;;17.75;58.64;101064.72;5113707;28;20028;-79
2023/10/18 09:21:36;;;;;;;89.60;7.70;;;;;;;17.82;57.81;101059.50;5113330;28;20024;-80
2023/10/18 09:24:03;;;;;;;29.83;4.85;;;;;;;17.93;57.91;101059.22;5113414;28;20123;-80
2023/10/18 09:26:40;;;;;;;14.77;3.05;;;;;;;17.95;57.44;101068.06;5094013;28;20120;-78
2023/10/18 09:29:08;;;;;;;60.90;6.65;;;;;;;17.88;57.29;101037.94;5113360;28;20043;-84
2023/10/18 09:31:34;;;;;;;47.92;4.88;;;;;;;18.09;57.25;101061.19;5113251;28;20035;-79
2023/10/18 09:33:59;;;;;;;50.38;6.18;;;;;;;18.00;57.76;101033.06;5113142;28;20410;-79
2023/10/18 09:36:27;;;;;;;52.92;6.28;;;;;;;18.01;56.80;101023.88;5112897;28;20024;-80
2023/10/18 09:38:54;;;;;;;43.60;4.97;;;;;;;18.13;58.01;101038.94;5112871;28;20032;-79
2023/10/18 09:41:21;;;;;;;24.40;3.67;;;;;;;18.37;56.60;101052.63;5110743;28;20600;-79
2023/10/18 09:43:47;;;;;;;31.77;10.45;;;;;;;18.35;55.24;101049.19;5113298;28;20031;-79
2023/10/18 09:46:13;;;;;;;17.98;3.67;;;;;;;18.34;54.89;101055.69;5112791;28;20137;-80
2023/10/18 09:48:43;;;;;;;38.40;3.70;;;;;;;18.40;55.52;101052.31;5089443;28;20092;-79
2023/10/18 09:51:11;;;;;;;98.22;17.60;;;;;;;18.57;55.05;101046.91;5089839;28;20132;-81
2023/10/18 09:53:43;;;;;;;28.20;4.22;;;;;;;18.73;55.16;101052.41;5089808;28;20419;-79
2023/10/18 09:56:11;;;;;;;34.35;8.70;;;;;;;18.67;54.30;101031.28;5089829;28;20043;-81
2023/10/18 09:58:43;;;;;;;17.27;2.47;;;;;;;18.56;54.08;101028.88;5089871;28;20193;-80
2023/10/18 10:01:14;;;;;;;74.80;8.85;;;;;;;18.64;53.85;101023.44;5089945;28;20496;-80
2023/10/18 10:03:53;;;;;;;20.27;2.85;;;;;;;18.71;53.97;101025.34;5089935;28;20476;-80
2023/10/18 10:06:28;;;;;;;22.42;3.22;;;;;;;18.66;54.54;101032.28;5089391;28;20024;-80
2023/10/18 10:09:12;;;;;;;11.50;2.45;;;;;;;18.48;54.51;101011.47;5089339;28;20054;-81
2023/10/18 10:11:44;;;;;;;30.63;3.13;;;;;;;18.58;54.95;101032.28;5089477;28;20038;-81
2023/10/18 10:14:11;;;;;;;14.52;2.15;;;;;;;18.42;54.86;101012.13;5089160;28;20415;-79
2023/10/18 10:16:44;;;;;;;33.92;4.75;;;;;;;18.33;55.82;101034.91;5072430;28;20032;-80
2023/10/18 10:19:11;;;;;;;21.85;3.65;;;;;;;18.09;55.38;101004.88;5096413;28;20534;-81
2023/10/18 10:21:37;;;;;;;18.67;2.90;;;;;;;18.11;55.07;100997.38;5111636;28;20096;-80
2023/10/18 10:24:29;;;;;;;41.70;4.60;;;;;;;18.27;54.16;101021.09;5112312;28;20399;-80
2023/10/18 10:26:52;;;;;;;69.13;4.57;;;;;;;18.30;53.73;100980.78;5111907;28;20130;-79
2023/10/18 10:31:58;;;;;;;20.60;3.10;;;;;;;18.58;53.55;101008.63;5112096;28;20050;-83
2023/10/18 10:34:32;;;;;;;27.90;3.45;;;;;;;18.57;52.95;101006.91;5112315;28;20031;-81
2023/10/18 10:37:07;;;;;;;26.00;4.13;;;;;;;18.61;54.07;101021.06;5111949;28;20032;-82
2023/10/18 10:39:36;;;;;;;14.60;4.10;;;;;;;18.58;54.63;101005.03;5112177;28;20036;-80
2023/10/18 10:42:19;;;;;;;33.65;5.63;;;;;;;18.64;55.58;101004.38;5111850;28;20023;-81
2023/10/18 10:45:10;;;;;;;21.13;3.83;;;;;;;18.66;55.12;101029.56;5111817;28;20031;-81
2023/10/18 10:47:42;;;;;;;9.80;1.98;;;;;;;18.42;54.85;100995.78;5111747;28;20030;-82
2023/10/18 10:50:09;;;;;;;17.75;4.22;;;;;;;18.44;54.41;101020.97;5111216;28;20103;-82
2023/10/18 10:52:40;;;;;;;74.10;7.90;;;;;;;18.27;54.31;100981.09;5111781;28;20103;-82
2023/10/18 10:55:21;;;;;;;34.78;3.17;;;;;;;18.46;55.11;101016.25;5111702;28;20114;-83
2023/10/18 10:57:47;;;;;;;33.97;4.13;;;;;;;18.34;54.45;100989.47;5111417;28;20030;-81
2023/10/18 11:03:07;;;;;;;22.13;3.70;;;;;;;18.21;55.26;100995.38;5095461;28;20517;-81
2023/10/18 11:05:39;;;;;;;58.25;6.50;;;;;;;18.26;55.62;100989.44;5088111;28;20036;-81
2023/10/18 11:08:05;;;;;;;33.92;4.13;;;;;;;18.12;55.86;100981.91;5088487;28;20054;-81
2023/10/18 11:10:40;;;;;;;25.65;7.60;;;;;;;18.20;55.62;100990.09;5088324;28;20111;-82
2023/10/18 11:13:07;;;;;;;34.78;4.70;;;;;;;18.15;56.04;100987.88;5088524;28;20388;-82
2023/10/18 11:15:36;;;;;;;58.80;6.40;;;;;;;18.25;56.74;100998.63;5087840;28;20615;-81
2023/10/18 11:18:20;;;;;;;15.45;2.90;;;;;;;18.14;55.39;100986.16;5071256;28;20032;-81
2023/10/18 11:21:05;;;;;;;19.35;3.05;;;;;;;18.16;55.54;101005.06;5071111;28;20562;-83
2023/10/18 11:23:37;;;;;;;17.95;3.20;;;;;;;17.99;55.85;100998.69;5088100;28;20052;-83
2023/10/18 11:26:19;;;;;;;17.87;3.30;;;;;;;17.99;56.08;101009.59;5088292;28;20058;-82
2023/10/18 11:28:45;;;;;;;;;;;;;;;18.03;55.94;101010.97;5088312;28;20035;-82
2023/10/18 11:31:10;;;;;;;13.38;2.78;;;;;;;17.91;55.91;101010.41;5088123;28;20014;-82
2023/10/18 11:36:21;;;;;;;16.35;2.45;;;;;;;18.02;56.57;101011.97;5097454;28;20097;-82
2023/10/18 11:41:36;;;;;;;35.80;6.68;;;;;;;17.93;56.72;101007.50;5111229;28;20031;-83
2023/10/18 11:44:06;;;;;;;23.08;3.03;;;;;;;17.78;57.06;100974.63;5110649;28;20031;-81
2023/10/18 11:46:46;;;;;;;52.38;5.70;;;;;;;17.86;56.74;100984.69;5108448;28;20039;-81
2023/10/18 11:49:12;;;;;;;37.78;5.25;;;;;;;18.09;56.82;100999.44;5110828;28;20024;-82
2023/10/18 11:51:46;;;;;;;34.97;3.75;;;;;;;18.14;56.80;100997.06;5111026;28;20028;-81
2023/10/18 11:54:27;;;;;;;57.92;6.40;;;;;;;18.10;56.51;100970.34;5110484;28;20039;-81
2023/10/18 11:56:52;;;;;;;15.82;3.38;;;;;;;18.23;57.05;100987.03;5110750;28;20028;-82
2023/10/18 11:59:18;;;;;;;189.95;23.42;;;;;;;18.15;56.76;100985.16;5091104;28;20118;-82
2023/10/18 12:01:45;;;;;;;35.33;4.40;;;;;;;18.14;56.29;100983.44;5110644;28;20020;-84
2023/10/18 12:04:15;;;;;;;55.65;6.07;;;;;;;17.60;56.89;100894.97;5110283;28;20032;-83
2023/10/18 12:06:41;;;;;;;64.13;6.75;;;;;;;18.12;56.33;100980.03;5109227;28;20070;-84
2023/10/18 12:11:38;;;;;;;20.17;3.60;;;;;;;18.18;55.30;100982.09;5110814;28;20028;-82
2023/10/18 12:14:08;;;;;;;28.02;4.03;;;;;;;18.39;56.00;100996.13;5110395;28;20127;-87
2023/10/18 12:16:34;;;;;;;19.77;2.75;;;;;;;18.21;54.33;100960.00;5110326;28;20120;-83
2023/10/18 12:19:00;;;;;;;24.58;3.35;;;;;;;17.90;54.89;100923.47;5110544;28;20023;-82
2023/10/18 12:21:29;;;;;;;29.92;3.78;;;;;;;18.08;55.59;100967.75;5108947;28;20081;-82
2023/10/18 12:23:57;;;;;;;45.85;6.22;;;;;;;18.28;56.28;101007.34;5110255;28;20027;-81
2023/10/18 12:26:24;;;;;;;30.48;4.97;;;;;;;18.14;56.21;100969.81;5090851;28;20031;-83
2023/10/18 12:28:55;;;;;;;17.13;2.63;;;;;;;18.29;55.89;100994.53;5110004;28;20039;-84